Time;durP1;ratioP1;P1;durP2;ratioP2;P2;SDS_P1;SDS_P2;PMS_P1;PMS_P2;Temp;Humidity;BMP_temperature;BMP_pressure;BME280_temperature;BME280_humidity;BME280_pressure;Samples;Min_cycle;Max_cycle;Signal;HPM_P1;HPM_P2
2023/10/05 00:01:56;;;;;;;2.63;2.43;;;9.50;99.90;;;;;;5065131;28;21155;-91
2023/10/05 00:04:24;;;;;;;5.67;2.33;;;9.50;99.90;;;;;;5061291;28;20465;-87
2023/10/05 00:06:53;;;;;;;2.70;1.90;;;9.50;99.90;;;;;;5066471;28;20459;-86
2023/10/05 00:09:21;;;;;;;2.57;2.37;;;9.40;99.90;;;;;;5066372;28;20498;-89
2023/10/05 00:11:48;;;;;;;2.10;1.83;;;9.40;99.90;;;;;;5066227;28;20470;-87
2023/10/05 00:14:16;;;;;;;2.90;2.70;;;9.30;99.90;;;;;;5061108;28;21013;-84
2023/10/05 00:16:47;;;;;;;5.50;5.00;;;9.20;99.90;;;;;;5061733;28;20463;-88
2023/10/05 00:19:17;;;;;;;3.30;3.10;;;9.30;99.90;;;;;;5065147;28;20513;-87
2023/10/05 00:21:50;;;;;;;3.10;2.87;;;9.40;99.90;;;;;;5066442;28;20455;-88
2023/10/05 00:24:26;;;;;;;3.80;2.80;;;9.30;99.90;;;;;;5063806;28;20490;-88
2023/10/05 00:26:56;;;;;;;2.13;1.73;;;9.30;99.90;;;;;;5064700;28;21175;-89
2023/10/05 00:29:28;;;;;;;2.87;2.17;;;9.20;99.90;;;;;;5064831;28;20460;-89
2023/10/05 00:31:58;;;;;;;3.13;2.00;;;9.10;99.90;;;;;;5064626;28;20499;-88
2023/10/05 00:34:28;;;;;;;2.43;2.33;;;8.90;99.90;;;;;;5059442;28;20494;-91
2023/10/05 00:36:58;;;;;;;2.50;2.27;;;8.80;99.90;;;;;;5064575;28;20456;-87
2023/10/05 00:39:29;;;;;;;3.00;2.80;;;8.70;99.90;;;;;;5065052;28;20547;-86
2023/10/05 00:42:06;;;;;;;3.83;2.50;;;8.60;99.90;;;;;;5064524;28;20463;-87
2023/10/05 00:44:35;;;;;;;3.80;2.60;;;8.60;99.90;;;;;;5060637;28;20454;-86
2023/10/05 00:47:05;;;;;;;3.20;2.57;;;8.60;99.90;;;;;;5065711;28;20525;-87
2023/10/05 00:49:42;;;;;;;3.17;2.70;;;8.80;99.90;;;;;;5070436;28;21163;-88
2023/10/05 00:52:13;;;;;;;3.77;3.47;;;8.90;99.90;;;;;;5069348;28;20463;-86
2023/10/05 00:54:44;;;;;;;2.23;2.10;;;8.80;99.90;;;;;;5069690;28;20986;-89
2023/10/05 00:57:14;;;;;;;4.87;2.27;;;8.60;99.90;;;;;;5068309;28;20452;-86
2023/10/05 00:59:42;;;;;;;3.20;2.70;;;8.60;99.90;;;;;;5067557;28;20521;-88
2023/10/05 01:02:16;;;;;;;2.33;2.00;;;8.60;99.90;;;;;;5065747;28;20805;-86
2023/10/05 01:04:56;;;;;;;2.63;2.00;;;8.60;99.90;;;;;;5054305;28;20487;-86
2023/10/05 01:07:43;;;;;;;2.17;1.97;;;8.60;99.90;;;;;;5060856;28;20447;-86
2023/10/05 01:10:41;;;;;;;2.93;2.30;;;8.60;99.90;;;;;;5068953;28;20440;-86
2023/10/05 01:13:31;;;;;;;2.63;2.43;;;8.60;99.90;;;;;;5056450;28;20488;-86
2023/10/05 01:15:59;;;;;;;3.60;3.07;;;8.50;99.90;;;;;;5055467;28;20493;-88
2023/10/05 01:18:29;;;;;;;2.30;2.10;;;8.40;99.90;;;;;;5065318;28;20468;-86
2023/10/05 01:21:00;;;;;;;3.07;2.77;;;8.40;99.90;;;;;;5067775;28;20496;-86
2023/10/05 01:23:38;;;;;;;2.77;2.57;;;8.50;99.90;;;;;;5068933;28;20452;-91
2023/10/05 01:26:10;;;;;;;3.03;2.63;;;8.70;99.90;;;;;;5066415;28;20487;-86
2023/10/05 01:28:38;;;;;;;2.30;1.93;;;8.70;99.90;;;;;;5066461;28;21020;-86
2023/10/05 01:31:09;;;;;;;2.13;2.03;;;8.70;99.90;;;;;;5067507;28;20460;-86
2023/10/05 01:33:37;;;;;;;4.23;2.47;;;8.60;99.90;;;;;;5068365;28;20488;-86
2023/10/05 01:36:04;;;;;;;1.47;1.37;;;8.50;99.90;;;;;;5064071;28;20978;-89
2023/10/05 01:38:37;;;;;;;2.80;2.60;;;8.50;99.90;;;;;;5068227;28;20456;-86
2023/10/05 01:41:06;;;;;;;2.90;2.40;;;8.60;99.90;;;;;;5066732;28;20529;-86
2023/10/05 01:43:35;;;;;;;2.50;2.30;;;8.60;99.90;;;;;;5068052;28;20448;-87
2023/10/05 01:46:04;;;;;;;3.50;2.03;;;8.60;99.90;;;;;;5065343;28;20436;-86
2023/10/05 01:48:31;;;;;;;2.37;2.17;;;8.60;99.90;;;;;;5067985;28;20447;-86
2023/10/05 01:51:06;;;;;;;2.10;2.00;;;8.60;99.90;;;;;;5067470;28;20467;-86
2023/10/05 01:53:34;;;;;;;4.00;2.57;;;8.40;99.90;;;;;;5064732;28;20486;-86
2023/10/05 01:56:03;;;;;;;5.83;2.63;;;8.40;99.90;;;;;;5067130;28;20456;-86
2023/10/05 01:58:34;;;;;;;2.60;2.40;;;8.30;99.90;;;;;;5065595;28;20449;-87
2023/10/05 02:01:02;;;;;;;3.03;2.80;;;8.20;99.90;;;;;;5068035;28;20541;-85
2023/10/05 02:03:29;;;;;;;2.50;2.20;;;8.40;99.90;;;;;;5063899;28;20463;-86
2023/10/05 02:06:04;;;;;;;2.87;1.90;;;8.50;99.90;;;;;;5067607;28;20506;-85
2023/10/05 02:08:34;;;;;;;3.80;2.90;;;8.40;99.90;;;;;;5072399;28;20466;-85
2023/10/05 02:11:04;;;;;;;2.70;2.03;;;8.40;99.90;;;;;;5074388;28;20456;-86
2023/10/05 02:13:32;;;;;;;2.60;2.30;;;8.30;99.90;;;;;;5075058;28;20523;-86
2023/10/05 02:16:00;;;;;;;3.97;2.30;;;8.20;99.90;;;;;;5062776;28;20526;-84
2023/10/05 02:18:30;;;;;;;2.63;2.17;;;8.20;99.90;;;;;;5068645;28;21031;-85
2023/10/05 02:21:05;;;;;;;3.33;2.63;;;8.30;99.90;;;;;;5067998;28;20482;-86
2023/10/05 02:23:37;;;;;;;2.50;2.00;;;8.40;99.90;;;;;;5068489;28;20484;-85
2023/10/05 02:26:10;;;;;;;2.10;2.00;;;8.40;99.90;;;;;;5068574;28;20547;-87
2023/10/05 02:28:41;;;;;;;2.83;2.60;;;8.30;99.90;;;;;;5063514;28;21033;-85
2023/10/05 02:31:12;;;;;;;3.20;2.73;;;8.20;99.90;;;;;;5066591;28;20525;-85
2023/10/05 02:33:40;;;;;;;2.27;1.80;;;8.10;99.90;;;;;;5065585;28;20493;-86
2023/10/05 02:36:14;;;;;;;7.23;1.50;;;8.00;99.90;;;;;;5067699;28;20513;-87
2023/10/05 02:38:49;;;;;;;3.40;2.20;;;8.00;99.90;;;;;;5066462;28;20471;-85
2023/10/05 02:41:24;;;;;;;2.30;2.10;;;7.90;99.90;;;;;;5065947;28;20451;-87
2023/10/05 02:43:53;;;;;;;2.73;1.93;;;7.90;99.90;;;;;;5067738;28;20443;-85
2023/10/05 02:46:22;;;;;;;4.53;2.50;;;7.90;99.90;;;;;;5067056;28;20558;-84
2023/10/05 02:48:49;;;;;;;5.17;2.30;;;7.90;99.90;;;;;;5066770;28;20439;-85
2023/10/05 02:51:18;;;;;;;4.10;1.70;;;7.80;99.90;;;;;;5067398;28;20531;-89
2023/10/05 02:53:46;;;;;;;3.10;2.20;;;7.80;99.90;;;;;;5061323;28;20479;-85
2023/10/05 02:56:22;;;;;;;4.40;2.10;;;7.80;99.90;;;;;;5062264;28;20458;-87
2023/10/05 02:58:55;;;;;;;2.60;2.20;;;7.70;99.90;;;;;;5066341;28;20451;-87
2023/10/05 03:01:22;;;;;;;3.23;2.97;;;7.80;99.90;;;;;;5064633;28;20538;-86
2023/10/05 03:03:51;;;;;;;5.20;2.90;;;7.90;99.90;;;;;;5055707;28;20479;-85
2023/10/05 03:06:18;;;;;;;4.00;3.60;;;7.80;99.90;;;;;;5067049;28;20451;-84
2023/10/05 03:08:49;;;;;;;2.70;1.90;;;7.70;99.90;;;;;;5065231;28;20491;-85
2023/10/05 03:11:18;;;;;;;2.80;2.53;;;7.70;99.90;;;;;;5066784;28;20539;-88
2023/10/05 03:13:46;;;;;;;1.87;1.73;;;7.70;99.90;;;;;;5059967;28;20523;-84
2023/10/05 03:16:16;;;;;;;2.20;1.73;;;7.80;99.90;;;;;;5065772;28;20455;-85
2023/10/05 03:18:44;;;;;;;1.90;1.80;;;7.90;99.90;;;;;;5062793;28;20541;-86
2023/10/05 03:21:13;;;;;;;3.73;2.30;;;7.80;99.90;;;;;;5064832;28;20452;-85
2023/10/05 03:23:42;;;;;;;1.50;1.40;;;7.80;99.90;;;;;;5065870;28;20480;-88
2023/10/05 03:26:13;;;;;;;1.90;1.80;;;7.80;99.90;;;;;;5064469;28;20539;-84
2023/10/05 03:28:42;;;;;;;2.30;2.10;;;7.90;99.90;;;;;;5062636;28;20870;-86
2023/10/05 03:31:23;;;;;;;2.77;2.30;;;7.80;99.90;;;;;;5065798;28;20464;-85
2023/10/05 03:33:52;;;;;;;1.90;1.70;;;7.70;99.90;;;;;;5065052;28;20970;-87
2023/10/05 03:36:19;;;;;;;2.23;1.87;;;7.70;99.90;;;;;;5064826;28;20507;-85
2023/10/05 03:39:07;;;;;;;2.07;1.97;;;7.80;99.90;;;;;;5095769;27;20735;-77
2023/10/05 03:41:38;;;;;;;4.13;3.17;;;7.90;99.90;;;;;;5087293;28;20451;-77
2023/10/05 03:44:07;;;;;;;2.53;1.83;;;7.90;99.90;;;;;;5087923;28;20461;-77
2023/10/05 03:46:35;;;;;;;2.00;1.80;;;7.90;99.90;;;;;;5087501;28;20564;-78
2023/10/05 03:49:06;;;;;;;2.37;2.20;;;7.90;99.90;;;;;;5096843;28;20455;-77
2023/10/05 03:51:37;;;;;;;4.67;3.00;;;7.90;99.90;;;;;;5088278;28;20906;-77
2023/10/05 03:54:07;;;;;;;1.83;1.67;;;7.80;99.90;;;;;;5096895;28;20480;-77
2023/10/05 03:56:36;;;;;;;6.60;2.67;;;7.70;99.90;;;;;;5093066;28;20762;-77
2023/10/05 03:59:03;;;;;;;3.17;2.40;;;7.70;99.90;;;;;;5099982;28;20537;-77
2023/10/05 04:01:30;;;;;;;2.63;2.27;;;7.70;99.90;;;;;;5094293;28;20451;-77
2023/10/05 04:03:57;;;;;;;3.00;2.00;;;7.60;99.90;;;;;;5087009;28;20471;-77
2023/10/05 04:06:26;;;;;;;4.33;2.10;;;7.60;99.90;;;;;;5095970;28;20458;-77
2023/10/05 04:08:57;;;;;;;2.57;2.37;;;7.60;99.90;;;;;;5097991;28;20529;-77
2023/10/05 04:11:27;;;;;;;4.23;2.30;;;7.60;99.90;;;;;;5096563;28;20918;-77
2023/10/05 04:13:54;;;;;;;3.03;2.20;;;7.60;99.90;;;;;;5097800;28;21040;-77
2023/10/05 04:16:26;;;;;;;4.43;2.43;;;7.70;99.90;;;;;;5094854;28;20552;-77
2023/10/05 04:18:53;;;;;;;2.00;1.80;;;7.60;99.90;;;;;;5086128;28;20512;-77
2023/10/05 04:21:22;;;;;;;2.87;2.03;;;7.60;99.90;;;;;;5084918;28;20512;-77
2023/10/05 04:23:50;;;;;;;3.37;2.80;;;7.60;99.90;;;;;;5091887;28;20451;-77
2023/10/05 04:26:19;;;;;;;1.87;1.60;;;7.60;99.90;;;;;;5094722;28;20541;-77
2023/10/05 04:28:54;;;;;;;1.67;1.57;;;7.50;99.90;;;;;;5092271;28;20549;-78
2023/10/05 04:31:28;;;;;;;2.47;1.73;;;7.40;99.90;;;;;;5100938;28;20915;-78
2023/10/05 04:33:59;;;;;;;3.00;2.23;;;7.50;99.90;;;;;;5084752;28;20473;-78
2023/10/05 04:36:26;;;;;;;3.67;2.60;;;7.40;99.90;;;;;;5093914;28;20446;-78
2023/10/05 04:38:54;;;;;;;2.77;2.23;;;7.50;99.90;;;;;;5081491;28;20593;-77
2023/10/05 04:41:28;;;;;;;2.53;1.70;;;7.40;99.90;;;;;;5082041;28;20524;-77
2023/10/05 04:43:57;;;;;;;1.93;1.73;;;7.40;99.90;;;;;;5085085;28;20533;-78
2023/10/05 04:46:24;;;;;;;3.43;3.13;;;7.30;99.90;;;;;;5083775;28;20461;-78
2023/10/05 04:49:02;;;;;;;2.20;1.70;;;7.30;99.90;;;;;;5081945;28;20471;-78
2023/10/05 04:51:31;;;;;;;3.47;2.77;;;7.30;99.90;;;;;;5068775;28;20455;-78
2023/10/05 04:53:59;;;;;;;2.60;2.40;;;7.30;99.90;;;;;;5082716;28;20608;-78
2023/10/05 04:56:40;;;;;;;4.20;2.50;;;7.20;99.90;;;;;;5076995;28;20481;-78
2023/10/05 04:59:36;;;;;;;3.27;2.80;;;7.20;99.90;;;;;;5083961;28;21218;-78
2023/10/05 05:05:07;;;;;;;6.50;3.27;;;7.30;99.90;;;;;;5074398;28;20950;-78
2023/10/05 05:07:36;;;;;;;3.60;3.27;;;7.40;99.90;;;;;;5075611;28;21580;-77
2023/10/05 05:10:06;;;;;;;3.03;2.50;;;7.40;99.90;;;;;;5076809;28;20449;-77
2023/10/05 05:12:35;;;;;;;2.30;1.97;;;7.30;99.90;;;;;;5072339;28;20463;-78
2023/10/05 05:15:05;;;;;;;3.57;3.27;;;7.30;99.90;;;;;;5081744;28;20558;-77
2023/10/05 05:17:33;;;;;;;3.30;3.00;;;7.30;99.90;;;;;;5075578;28;20585;-78
2023/10/05 05:20:11;;;;;;;2.80;2.50;;;7.40;99.90;;;;;;5079547;28;20573;-78
2023/10/05 05:22:38;;;;;;;3.10;2.80;;;7.60;99.90;;;;;;5079237;28;20442;-78
2023/10/05 05:25:07;;;;;;;5.07;4.33;;;7.70;99.90;;;;;;5079154;28;20538;-78
2023/10/05 05:27:34;;;;;;;5.70;5.17;;;7.80;99.90;;;;;;5077756;28;20531;-78
2023/10/05 05:30:04;;;;;;;4.67;4.20;;;7.80;99.90;;;;;;5072982;28;20463;-78
2023/10/05 05:32:30;;;;;;;4.50;3.93;;;7.80;99.90;;;;;;5069088;28;20460;-78
2023/10/05 05:34:57;;;;;;;5.23;3.60;;;7.80;99.90;;;;;;5071040;28;20490;-78
2023/10/05 05:37:28;;;;;;;3.63;3.27;;;7.90;99.90;;;;;;5070398;28;20522;-78
2023/10/05 05:39:55;;;;;;;4.60;4.30;;;8.00;99.90;;;;;;5066174;28;20840;-78
2023/10/05 05:42:25;;;;;;;4.23;3.93;;;8.20;99.90;;;;;;5068773;28;20574;-78
2023/10/05 05:44:53;;;;;;;5.10;3.80;;;8.20;99.90;;;;;;5074053;28;20451;-78
2023/10/05 05:47:21;;;;;;;3.23;2.93;;;8.40;99.90;;;;;;5073768;28;20453;-78
2023/10/05 05:49:50;;;;;;;3.63;3.33;;;8.50;99.90;;;;;;5076367;28;20541;-78
2023/10/05 05:52:19;;;;;;;4.20;3.73;;;8.50;99.90;;;;;;5072247;28;20802;-78
2023/10/05 05:54:47;;;;;;;4.80;3.60;;;8.50;99.90;;;;;;5068375;28;20471;-78
2023/10/05 05:57:19;;;;;;;3.30;3.10;;;8.70;99.90;;;;;;5073371;28;20540;-79
2023/10/05 05:59:46;;;;;;;3.93;3.53;;;8.90;99.90;;;;;;5070268;28;20454;-79
2023/10/05 06:02:14;;;;;;;3.87;2.73;;;8.90;99.90;;;;;;5067074;28;20528;-79
2023/10/05 06:04:42;;;;;;;3.20;2.90;;;9.00;99.90;;;;;;5080446;28;20443;-79
2023/10/05 06:07:13;;;;;;;5.50;5.00;;;8.90;99.90;;;;;;5074973;28;20456;-79
2023/10/05 06:09:42;;;;;;;3.90;3.37;;;8.90;99.90;;;;;;5083750;28;20916;-79
2023/10/05 06:12:10;;;;;;;8.83;3.20;;;9.00;99.90;;;;;;5086202;28;20451;-79
2023/10/05 06:14:37;;;;;;;4.50;3.47;;;9.20;99.90;;;;;;5079474;28;20439;-79
2023/10/05 06:17:04;;;;;;;2.80;2.63;;;9.20;99.90;;;;;;5077818;28;20466;-79
2023/10/05 06:19:31;;;;;;;3.43;2.80;;;9.20;99.90;;;;;;5080624;28;20482;-79
2023/10/05 06:22:01;;;;;;;3.47;3.17;;;9.20;99.90;;;;;;5076644;28;20428;-79
2023/10/05 06:24:29;;;;;;;2.60;2.40;;;9.10;99.90;;;;;;5070466;28;20866;-79
2023/10/05 06:26:56;;;;;;;2.10;1.90;;;9.20;99.90;;;;;;5069981;28;20981;-79
2023/10/05 06:29:24;;;;;;;2.40;2.20;;;9.30;99.90;;;;;;5071157;28;20490;-79
2023/10/05 06:31:52;;;;;;;2.37;2.17;;;9.30;99.90;;;;;;5071644;28;20471;-79
2023/10/05 06:34:19;;;;;;;3.03;1.77;;;9.20;99.90;;;;;;5074966;28;20569;-78
2023/10/05 06:36:47;;;;;;;5.83;2.27;;;9.20;99.90;;;;;;5065409;28;20456;-79
2023/10/05 06:39:17;;;;;;;4.40;2.73;;;9.40;99.90;;;;;;5070086;28;20494;-79
2023/10/05 06:41:45;;;;;;;4.80;3.80;;;9.50;99.90;;;;;;5074582;28;20454;-79
2023/10/05 06:44:12;;;;;;;5.33;3.30;;;9.60;99.90;;;;;;5067622;28;20448;-77
2023/10/05 06:46:41;;;;;;;3.57;2.90;;;9.80;99.90;;;;;;5065656;28;20436;-77
2023/10/05 06:49:08;;;;;;;4.50;4.00;;;9.90;99.90;;;;;;5071694;28;20922;-77
2023/10/05 06:51:39;;;;;;;8.13;6.03;;;10.00;99.90;;;;;;5065972;28;20508;-77
2023/10/05 06:54:06;;;;;;;5.50;5.00;;;10.00;99.90;;;;;;5069571;28;20460;-77
2023/10/05 06:56:35;;;;;;;6.97;5.47;;;10.10;99.90;;;;;;5066211;28;20448;-77
2023/10/05 06:59:04;;;;;;;7.87;5.80;;;10.30;99.90;;;;;;5069515;28;20501;-77
2023/10/05 07:01:34;;;;;;;9.27;8.37;;;10.30;99.90;;;;;;5072397;28;20457;-77
2023/10/05 07:04:02;;;;;;;9.20;6.90;;;10.40;99.90;;;;;;5080988;28;20459;-77
2023/10/05 07:06:29;;;;;;;9.03;8.13;;;10.50;99.90;;;;;;5085040;28;20452;-79
2023/10/05 07:08:59;;;;;;;7.97;7.07;;;10.60;99.90;;;;;;5081795;28;20522;-79
2023/10/05 07:11:26;;;;;;;8.97;7.10;;;10.50;99.90;;;;;;5076155;28;20544;-77
2023/10/05 07:13:54;;;;;;;6.50;5.90;;;10.50;99.90;;;;;;5084148;28;20452;-78
2023/10/05 07:16:21;;;;;;;4.07;3.37;;;10.60;99.90;;;;;;5076015;28;20459;-77
2023/10/05 07:18:49;;;;;;;3.90;3.50;;;10.60;99.90;;;;;;5083609;28;20483;-77
2023/10/05 07:21:15;;;;;;;4.80;4.40;;;10.40;99.90;;;;;;5082530;28;20451;-78
2023/10/05 07:23:43;;;;;;;3.70;3.30;;;10.50;99.90;;;;;;5083524;28;20500;-78
2023/10/05 07:26:10;;;;;;;3.80;3.50;;;10.70;99.90;;;;;;5083594;28;20542;-78
2023/10/05 07:28:37;;;;;;;4.90;3.93;;;10.70;99.90;;;;;;5082291;28;20481;-76
2023/10/05 07:31:07;;;;;;;4.27;3.97;;;10.60;99.90;;;;;;5085126;28;20463;-77
2023/10/05 07:33:33;;;;;;;5.10;4.70;;;10.60;99.90;;;;;;5075316;28;20451;-77
2023/10/05 07:36:02;;;;;;;5.80;4.40;;;10.70;99.90;;;;;;5074433;28;20546;-77
2023/10/05 07:38:29;;;;;;;5.73;5.20;;;10.70;99.90;;;;;;5083692;28;20585;-77
2023/10/05 07:40:56;;;;;;;7.50;5.83;;;10.70;99.90;;;;;;5075523;28;20508;-77
2023/10/05 07:43:27;;;;;;;8.20;6.03;;;10.90;99.90;;;;;;5072738;28;20442;-77
2023/10/05 07:45:54;;;;;;;6.70;4.63;;;11.10;99.90;;;;;;5063623;28;20526;-77
2023/10/05 07:48:22;;;;;;;6.93;6.30;;;11.20;99.90;;;;;;5067222;28;20445;-77
2023/10/05 07:50:50;;;;;;;8.30;5.13;;;11.50;99.90;;;;;;5068204;28;20798;-77
2023/10/05 07:53:17;;;;;;;7.20;5.60;;;11.70;99.90;;;;;;5079251;28;20847;-77
2023/10/05 07:55:44;;;;;;;7.63;5.03;;;11.70;99.90;;;;;;5063296;28;20560;-77
2023/10/05 07:58:12;;;;;;;5.30;4.10;;;11.70;99.90;;;;;;5076804;28;20456;-77
2023/10/05 08:00:39;;;;;;;7.73;5.60;;;11.90;99.90;;;;;;5071906;28;20536;-77
2023/10/05 08:03:09;;;;;;;8.47;7.77;;;12.10;99.90;;;;;;5071233;28;20546;-77
2023/10/05 08:05:37;;;;;;;7.10;6.00;;;11.90;99.90;;;;;;5079770;28;20445;-77
2023/10/05 08:08:05;;;;;;;5.70;5.10;;;12.20;99.90;;;;;;5083683;28;20673;-77
2023/10/05 08:10:31;;;;;;;5.73;5.23;;;12.40;99.90;;;;;;5071624;28;20441;-77
2023/10/05 08:13:03;;;;;;;5.83;5.37;;;12.20;99.90;;;;;;5080168;28;20464;-77
2023/10/05 08:15:30;;;;;;;9.50;6.60;;;12.40;99.90;;;;;;5067840;28;20468;-77
2023/10/05 08:17:57;;;;;;;6.83;6.17;;;12.70;99.90;;;;;;5082837;28;20445;-77
2023/10/05 08:20:26;;;;;;;5.80;5.20;;;12.70;99.90;;;;;;5079984;28;21039;-77
2023/10/05 08:22:56;;;;;;;6.70;4.90;;;12.70;99.90;;;;;;5082630;28;20502;-77
2023/10/05 08:25:23;;;;;;;5.57;4.97;;;12.80;99.90;;;;;;5080447;28;21025;-77
2023/10/05 08:27:51;;;;;;;6.63;4.40;;;12.90;99.90;;;;;;5086017;28;20555;-78
2023/10/05 08:30:18;;;;;;;5.93;4.43;;;12.80;99.90;;;;;;5081875;28;20863;-77
2023/10/05 08:32:47;;;;;;;4.70;4.27;;;13.10;99.90;;;;;;5081601;28;20854;-77
2023/10/05 08:35:14;;;;;;;4.30;3.90;;;13.30;99.90;;;;;;5082705;28;20458;-77
2023/10/05 08:37:48;;;;;;;7.10;4.90;;;13.00;99.90;;;;;;5069221;28;20520;-78
2023/10/05 08:43:10;;;;;;;6.80;4.70;;;13.20;99.90;;;;;;5068747;28;20460;-77
2023/10/05 08:45:47;;;;;;;6.43;4.97;;;13.30;99.90;;;;;;5066341;28;20973;-77
2023/10/05 08:48:20;;;;;;;6.70;4.90;;;13.00;99.90;;;;;;5071990;28;20910;-77
2023/10/05 08:50:53;;;;;;;6.43;4.37;;;13.00;99.90;;;;;;5074939;28;20447;-77
2023/10/05 08:53:21;;;;;;;5.20;4.13;;;13.40;99.90;;;;;;5070293;28;20510;-77
2023/10/05 08:55:52;;;;;;;5.20;4.70;;;13.60;99.90;;;;;;5065146;28;20441;-77
2023/10/05 08:58:20;;;;;;;7.30;4.80;;;13.60;99.90;;;;;;5073722;28;20453;-78
2023/10/05 09:00:48;;;;;;;5.60;5.10;;;13.50;99.90;;;;;;5074273;28;20960;-77
2023/10/05 09:06:15;;;;;;;4.50;4.10;;;13.40;99.90;;;;;;5164519;27;20556;-77
2023/10/05 09:08:51;;;;;;;4.10;3.80;;;13.40;99.90;;;;;;5154622;27;20499;-77
2023/10/05 09:11:20;;;;;;;3.83;3.50;;;13.60;99.90;;;;;;5152245;27;20813;-77
2023/10/05 09:13:47;;;;;;;8.50;4.40;;;13.60;99.90;;;;;;5157985;27;20523;-77
2023/10/05 09:16:22;;;;;;;7.50;5.40;;;13.60;99.90;;;;;;5162603;27;21120;-77
2023/10/05 09:18:49;;;;;;;4.50;3.93;;;14.00;99.90;;;;;;5154649;27;20448;-78
2023/10/05 09:21:19;;;;;;;6.70;4.97;;;14.00;99.90;;;;;;5150203;27;20471;-77
2023/10/05 09:23:47;;;;;;;4.80;4.30;;;14.00;99.90;;;;;;5153526;27;20994;-77
2023/10/05 09:26:33;;;;;;;3.80;3.40;;;14.30;99.90;;;;;;5161952;27;20457;-77
2023/10/05 09:29:20;;;;;;;3.53;2.70;;;14.50;99.90;;;;;;5162893;27;20471;-77
2023/10/05 09:31:50;;;;;;;4.13;3.43;;;14.70;99.90;;;;;;5152098;27;20543;-77
2023/10/05 09:34:19;;;;;;;3.83;3.43;;;14.80;99.90;;;;;;5164197;27;20447;-77
2023/10/05 09:36:53;;;;;;;6.63;3.80;;;15.00;99.90;;;;;;5155943;27;20519;-77
2023/10/05 09:39:26;;;;;;;3.83;3.53;;;15.10;99.90;;;;;;5157682;27;20885;-77
2023/10/05 09:41:56;;;;;;;3.77;3.43;;;15.40;99.90;;;;;;5160464;27;20540;-77
2023/10/05 09:44:28;;;;;;;3.33;3.03;;;15.30;99.90;;;;;;5162923;27;20540;-77
2023/10/05 09:46:57;;;;;;;3.07;2.87;;;15.40;99.90;;;;;;5155024;27;20469;-77
2023/10/05 09:49:24;;;;;;;2.73;2.50;;;15.60;99.90;;;;;;5158360;27;20488;-77
2023/10/05 09:51:54;;;;;;;10.83;3.00;;;15.40;99.90;;;;;;5162772;27;20446;-77
2023/10/05 09:54:26;;;;;;;3.57;3.27;;;15.70;99.90;;;;;;5162332;27;20477;-77
2023/10/05 09:56:54;;;;;;;2.87;2.67;;;15.70;99.90;;;;;;5151533;27;20442;-78
2023/10/05 09:59:25;;;;;;;2.33;2.13;;;15.70;99.90;;;;;;5160952;27;20498;-78
2023/10/05 10:01:53;;;;;;;3.57;3.20;;;15.60;99.90;;;;;;5153187;27;20462;-78
2023/10/05 10:04:35;;;;;;;5.00;3.00;;;15.60;99.90;;;;;;5160535;27;20493;-78
2023/10/05 10:07:15;;;;;;;5.13;3.20;;;15.80;99.90;;;;;;5161339;27;20450;-78
2023/10/05 10:09:46;;;;;;;3.37;3.07;;;15.50;99.90;;;;;;5161247;27;20510;-78
2023/10/05 10:12:25;;;;;;;3.30;3.00;;;15.70;99.90;;;;;;5152929;27;20462;-78
2023/10/05 10:14:53;;;;;;;9.53;4.87;;;15.90;99.90;;;;;;5148977;27;20463;-78
2023/10/05 10:17:27;;;;;;;4.60;3.37;;;16.00;99.90;;;;;;5147176;27;20492;-78
2023/10/05 10:20:07;;;;;;;5.90;4.70;;;16.10;99.90;;;;;;5147723;27;20918;-78
2023/10/05 10:22:55;;;;;;;3.13;2.83;;;16.20;99.90;;;;;;5147552;27;20469;-78
2023/10/05 10:25:30;;;;;;;3.00;2.77;;;16.50;99.90;;;;;;5148492;27;20484;-78
2023/10/05 10:28:18;;;;;;;4.67;4.00;;;16.40;99.90;;;;;;5138863;27;20490;-77
2023/10/05 10:30:49;;;;;;;3.53;3.27;;;16.40;99.90;;;;;;5146554;27;20440;-78
2023/10/05 10:33:26;;;;;;;4.60;2.70;;;16.50;99.90;;;;;;5141772;27;20456;-78
2023/10/05 10:35:53;;;;;;;2.90;2.70;;;16.40;99.90;;;;;;5141652;27;20484;-77
2023/10/05 10:38:23;;;;;;;3.47;2.93;;;16.40;99.90;;;;;;5143527;27;21015;-78
2023/10/05 10:41:15;;;;;;;4.03;3.67;;;16.70;99.90;;;;;;5144073;27;20550;-78
2023/10/05 10:43:48;;;;;;;3.13;2.90;;;16.80;99.90;;;;;;5144140;27;20895;-78
2023/10/05 10:46:21;;;;;;;5.80;3.33;;;16.70;98.10;;;;;;5147265;27;20516;-78
2023/10/05 10:48:57;;;;;;;3.37;3.07;;;16.80;98.30;;;;;;5145859;27;20778;-78
2023/10/05 10:51:27;;;;;;;2.53;2.33;;;16.90;96.30;;;;;;5144829;27;20440;-78
2023/10/05 10:54:00;;;;;;;3.27;2.87;;;16.90;96.70;;;;;;5145450;27;20492;-78
2023/10/05 10:56:35;;;;;;;2.50;2.23;;;17.00;97.40;;;;;;5145452;27;20960;-78
2023/10/05 10:59:11;;;;;;;3.30;2.57;;;17.10;97.00;;;;;;5143480;27;21164;-78
2023/10/05 11:01:44;;;;;;;3.67;3.13;;;17.20;96.30;;;;;;5125778;27;20980;-78
2023/10/05 11:04:26;;;;;;;1.60;1.50;;;17.30;97.90;;;;;;5144185;27;20480;-78
2023/10/05 11:06:59;;;;;;;1.60;1.50;;;17.40;95.60;;;;;;5145117;27;20440;-77
2023/10/05 11:09:34;;;;;;;3.63;1.97;;;17.50;94.10;;;;;;5142392;27;20517;-77
2023/10/05 11:12:09;;;;;;;2.30;2.10;;;17.60;93.80;;;;;;5141434;27;20479;-78
2023/10/05 11:14:38;;;;;;;8.00;3.00;;;17.70;93.70;;;;;;5147798;27;20448;-78
2023/10/05 11:17:12;;;;;;;2.67;1.53;;;17.70;94.00;;;;;;5142163;27;20459;-78
2023/10/05 11:19:40;;;;;;;2.93;1.80;;;17.80;92.90;;;;;;5148181;27;20444;-78
2023/10/05 11:22:11;;;;;;;4.93;2.47;;;17.90;92.60;;;;;;5144364;27;20569;-78
2023/10/05 11:25:14;;;;;;;3.13;1.83;;;18.00;93.70;;;;;;5142780;27;20451;-78
2023/10/05 11:27:58;;;;;;;2.27;1.60;;;18.10;91.90;;;;;;5144068;27;20451;-78
2023/10/05 11:30:41;;;;;;;2.83;2.63;;;18.00;90.90;;;;;;5145567;27;20444;-78
2023/10/05 11:33:15;;;;;;;2.50;1.73;;;18.00;89.60;;;;;;5138721;27;20552;-78
2023/10/05 11:35:48;;;;;;;4.27;3.60;;;18.20;91.90;;;;;;5143760;27;20439;-78
2023/10/05 11:38:16;;;;;;;4.27;3.03;;;18.00;88.10;;;;;;5146026;27;20456;-78
2023/10/05 11:40:49;;;;;;;3.03;2.37;;;18.10;89.10;;;;;;5146529;27;20472;-78
2023/10/05 11:43:18;;;;;;;3.43;2.80;;;18.30;90.80;;;;;;5135252;27;20463;-78
2023/10/05 11:45:58;;;;;;;3.23;2.10;;;18.30;90.00;;;;;;5143734;27;20484;-78
2023/10/05 11:48:40;;;;;;;3.00;2.77;;;18.40;88.70;;;;;;5138717;27;20440;-78
2023/10/05 11:51:10;;;;;;;4.20;2.27;;;18.40;85.80;;;;;;5135976;27;20460;-79
2023/10/05 11:53:37;;;;;;;8.60;3.00;;;18.40;87.80;;;;;;5142098;27;20553;-79
2023/10/05 11:56:06;;;;;;;4.40;2.60;;;18.40;90.00;;;;;;5145820;27;20490;-79
2023/10/05 11:58:36;;;;;;;2.27;1.77;;;18.40;86.60;;;;;;5144835;27;20447;-79
2023/10/05 12:01:04;;;;;;;3.43;2.70;;;18.50;90.80;;;;;;5136344;27;20460;-80
2023/10/05 12:03:31;;;;;;;2.83;1.97;;;18.70;87.30;;;;;;5139892;27;20498;-80
2023/10/05 12:06:00;;;;;;;2.30;2.10;;;18.80;75.00;;;;;;5139035;27;20492;-80
2023/10/05 12:08:29;;;;;;;4.70;2.07;;;18.80;75.40;;;;;;5146752;27;20582;-79
2023/10/05 12:10:59;;;;;;;4.00;2.90;;;18.80;73.00;;;;;;5140232;27;20536;-79
2023/10/05 12:13:28;;;;;;;4.23;3.07;;;18.70;78.00;;;;;;5139398;27;20545;-80
2023/10/05 12:15:55;;;;;;;3.83;1.70;;;18.70;75.80;;;;;;5141160;27;20794;-80
2023/10/05 12:18:23;;;;;;;2.23;1.80;;;18.80;80.10;;;;;;5142740;27;20906;-80
2023/10/05 12:20:50;;;;;;;2.83;2.63;;;18.60;78.30;;;;;;5134445;27;20500;-80
2023/10/05 12:23:17;;;;;;;4.83;2.60;;;18.60;80.10;;;;;;5133532;27;20768;-79
2023/10/05 12:25:45;;;;;;;3.00;2.10;;;18.60;81.90;;;;;;5142051;27;20483;-79
2023/10/05 12:28:13;;;;;;;3.10;2.80;;;18.70;82.40;;;;;;5139649;27;20538;-79
2023/10/05 12:30:44;;;;;;;2.97;2.13;;;18.90;87.10;;;;;;5138725;27;20859;-79
2023/10/05 12:33:11;;;;;;;3.47;2.67;;;18.80;80.30;;;;;;5142428;27;20471;-79
2023/10/05 12:35:38;;;;;;;3.03;2.10;;;19.00;80.10;;;;;;5147042;27;20433;-79
2023/10/05 12:38:07;;;;;;;3.90;1.87;;;19.30;82.50;;;;;;5140966;27;20510;-80
2023/10/05 12:40:35;;;;;;;2.30;2.20;;;19.40;78.00;;;;;;5135747;27;21016;-80
2023/10/05 12:43:03;;;;;;;4.43;2.67;;;19.70;76.90;;;;;;5141154;27;20542;-80
2023/10/05 12:45:30;;;;;;;3.97;2.87;;;19.70;75.70;;;;;;5142531;27;20493;-80
2023/10/05 12:47:59;;;;;;;3.17;2.83;;;19.50;76.90;;;;;;5143372;27;20468;-80
2023/10/05 12:50:28;;;;;;;1.90;1.80;;;19.50;72.80;;;;;;5146901;27;20444;-80
2023/10/05 12:52:56;;;;;;;2.63;2.33;;;19.30;75.00;;;;;;5136765;27;20902;-80
2023/10/05 12:55:26;;;;;;;3.67;2.20;;;19.10;77.70;;;;;;5139689;27;20476;-80
2023/10/05 12:57:54;;;;;;;2.93;2.60;;;19.10;80.90;;;;;;5135822;27;20475;-79
2023/10/05 13:00:25;;;;;;;4.43;2.90;;;19.20;77.40;;;;;;5139389;27;20502;-80
2023/10/05 13:02:53;;;;;;;3.93;3.07;;;19.00;79.70;;;;;;5134950;27;20479;-80
2023/10/05 13:05:28;;;;;;;2.70;1.90;;;19.20;78.30;;;;;;5144364;27;20484;-79
2023/10/05 13:07:56;;;;;;;6.33;2.50;;;19.20;79.30;;;;;;5138355;27;20455;-79
2023/10/05 13:10:26;;;;;;;8.13;2.77;;;19.30;80.70;;;;;;5132567;27;20468;-79
2023/10/05 13:12:54;;;;;;;2.50;1.57;;;19.20;84.00;;;;;;5144260;27;20494;-80
2023/10/05 13:15:24;;;;;;;3.27;2.00;;;19.10;77.30;;;;;;5140486;27;20434;-79
2023/10/05 13:17:52;;;;;;;6.77;1.90;;;19.20;76.50;;;;;;5143659;27;20441;-79
2023/10/05 13:20:25;;;;;;;6.63;2.20;;;19.00;75.20;;;;;;5142526;27;20826;-79